Time;durP1;ratioP1;P1;durP2;ratioP2;P2;SDS_P1;SDS_P2;PMS_P1;PMS_P2;Temp;Humidity;BMP_temperature;BMP_pressure;BME280_temperature;BME280_humidity;BME280_pressure;Samples;Min_cycle;Max_cycle;Signal;HPM_P1;HPM_P2
2024/01/29 00:01:04;;;;;;;;;;;;;;;22.40;29.38;102429.81;5034290;28;19917;-71
2024/01/29 00:03:29;;;;;;;;;;;;;;;22.35;29.51;102417.75;5038321;28;19972;-72
2024/01/29 00:05:55;;;;;;;;;;;;;;;22.29;29.62;102427.34;5037443;28;19917;-71
2024/01/29 00:08:20;;;;;;;;;;;;;;;22.25;29.72;102428.66;5037484;28;19963;-72
2024/01/29 00:10:45;;;;;;;;;;;;;;;22.21;29.45;102422.69;5042665;28;19991;-71
2024/01/29 00:13:10;;;;;;;;;;;;;;;22.17;29.83;102424.03;5039306;28;19917;-71
2024/01/29 00:15:35;;;;;;;;;;;;;;;22.15;29.69;102417.88;5037522;28;19913;-71
2024/01/29 00:18:01;;;;;;;;;;;;;;;22.13;29.68;102416.31;5037753;28;19928;-72
2024/01/29 00:20:26;;;;;;;;;;;;;;;22.08;29.87;102418.63;5034774;28;19924;-71
2024/01/29 00:22:51;;;;;;;;;;;;;;;22.04;30.09;102409.09;5055125;28;19948;-72
2024/01/29 00:25:16;;;;;;;;;;;;;;;21.98;30.19;102409.72;5043693;28;19919;-71
2024/01/29 00:27:41;;;;;;;;;;;;;;;21.94;30.13;102412.72;5030912;28;19935;-71
2024/01/29 00:30:08;;;;;;;;;;;;;;;21.92;30.14;102411.19;5030073;28;19921;-72
2024/01/29 00:32:33;;;;;;;;;;;;;;;21.90;30.26;102413.19;5034653;28;19913;-71
2024/01/29 00:34:58;;;;;;;;;;;;;;;21.88;30.09;102421.47;5034626;28;19914;-71
2024/01/29 00:37:26;;;;;;;;;;;;;;;21.86;30.31;102422.59;5043921;28;19917;-71
2024/01/29 00:39:51;;;;;;;;;;;;;;;21.83;30.30;102420.19;5044360;28;19917;-71
2024/01/29 00:42:16;;;;;;;;;;;;;;;21.82;30.15;102418.50;5039310;28;19923;-72
2024/01/29 00:44:42;;;;;;;;;;;;;;;21.79;30.25;102421.50;5042919;28;20250;-71
2024/01/29 00:47:09;;;;;;;;;;;;;;;21.75;30.29;102414.69;5041777;28;19924;-71
2024/01/29 00:49:34;;;;;;;;;;;;;;;21.72;30.09;102418.56;5040274;28;19917;-71
2024/01/29 00:51:59;;;;;;;;;;;;;;;21.69;30.41;102416.16;5040739;28;19923;-72
2024/01/29 00:54:24;;;;;;;;;;;;;;;21.66;30.23;102424.56;5036975;28;19956;-73
2024/01/29 00:56:50;;;;;;;;;;;;;;;21.63;30.33;102417.63;5042266;28;19920;-71
2024/01/29 00:59:15;;;;;;;;;;;;;;;21.62;30.45;102415.91;5039655;28;19932;-71
2024/01/29 01:01:40;;;;;;;;;;;;;;;21.62;30.25;102415.03;5038626;28;19920;-71
2024/01/29 01:04:05;;;;;;;;;;;;;;;21.58;30.23;102419.03;5042015;28;19932;-72
2024/01/29 01:06:31;;;;;;;;;;;;;;;21.56;30.40;102421.91;5037554;28;20397;-72
2024/01/29 01:08:56;;;;;;;;;;;;;;;21.53;30.55;102424.06;5045086;28;20023;-72
2024/01/29 01:11:21;;;;;;;;;;;;;;;21.52;30.55;102422.34;5038367;28;19913;-71
2024/01/29 01:13:46;;;;;;;;;;;;;;;21.53;30.38;102415.94;5034903;28;19913;-72
2024/01/29 01:16:12;;;;;;;;;;;;;;;21.51;30.32;102420.66;5039173;28;20378;-72
2024/01/29 01:18:37;;;;;;;;;;;;;;;21.48;30.45;102421.81;5038376;28;20445;-72
2024/01/29 01:21:02;;;;;;;;;;;;;;;21.48;30.66;102424.50;5040969;28;19959;-73
2024/01/29 01:23:27;;;;;;;;;;;;;;;21.49;30.61;102436.19;5042467;28;19913;-72
2024/01/29 01:25:52;;;;;;;;;;;;;;;21.46;30.57;102434.66;5039039;28;19975;-72
2024/01/29 01:28:18;;;;;;;;;;;;;;;21.42;30.45;102438.66;5033832;28;19913;-72
2024/01/29 01:30:43;;;;;;;;;;;;;;;21.40;30.79;102440.63;5038247;28;19935;-72
2024/01/29 01:33:08;;;;;;;;;;;;;;;21.38;30.63;102434.53;5051058;28;19913;-71
2024/01/29 01:35:33;;;;;;;;;;;;;;;21.36;30.76;102440.06;5052886;28;19917;-72
2024/01/29 01:37:58;;;;;;;;;;;;;;;21.36;30.51;102434.66;5043089;28;19913;-72
2024/01/29 01:40:23;;;;;;;;;;;;;;;21.32;30.50;102435.09;5040282;28;19972;-72
2024/01/29 01:42:49;;;;;;;;;;;;;;;21.34;30.70;102433.97;5033829;28;19917;-72
2024/01/29 01:45:14;;;;;;;;;;;;;;;21.29;30.64;102436.25;5036988;28;19913;-72
2024/01/29 01:47:39;;;;;;;;;;;;;;;21.29;30.71;102438.09;5038903;28;19939;-72
2024/01/29 01:50:05;;;;;;;;;;;;;;;21.28;30.55;102437.25;5042390;28;19913;-72
2024/01/29 01:52:30;;;;;;;;;;;;;;;21.25;30.88;102440.22;5040806;28;20024;-72
2024/01/29 01:54:55;;;;;;;;;;;;;;;21.21;30.90;102442.38;5046390;28;19920;-72
2024/01/29 01:57:20;;;;;;;;;;;;;;;21.19;30.92;102436.25;5042718;28;19917;-72
2024/01/29 01:59:46;;;;;;;;;;;;;;;21.20;30.61;102445.25;5039975;28;19928;-72
2024/01/29 02:02:11;;;;;;;;;;;;;;;21.20;30.92;102440.69;5033498;28;19918;-72
2024/01/29 02:04:36;;;;;;;;;;;;;;;21.19;30.83;102444.34;5033146;28;19941;-72
2024/01/29 02:07:01;;;;;;;;;;;;;;;21.17;30.92;102448.22;5034968;28;19978;-72
2024/01/29 02:09:26;;;;;;;;;;;;;;;21.12;30.94;102439.72;5038578;28;19925;-72
2024/01/29 02:11:52;;;;;;;;;;;;;;;21.13;30.90;102449.53;5038457;28;19917;-72
2024/01/29 02:14:17;;;;;;;;;;;;;;;21.11;30.85;102452.38;5034790;28;19923;-72
2024/01/29 02:16:42;;;;;;;;;;;;;;;21.09;30.75;102451.66;5042084;28;19976;-72
2024/01/29 02:19:14;;;;;;;;;;;;;;;21.08;30.78;102449.97;5045503;28;19921;-72
2024/01/29 02:21:40;;;;;;;;;;;;;;;21.05;31.00;102452.94;5039580;28;19924;-72
2024/01/29 02:24:05;;;;;;;;;;;;;;;21.05;30.98;102454.81;5037683;28;20429;-72
2024/01/29 02:26:30;;;;;;;;;;;;;;;21.03;31.01;102457.66;5035514;28;19974;-72
2024/01/29 02:28:55;;;;;;;;;;;;;;;21.02;31.07;102463.19;5034112;28;19939;-72
2024/01/29 02:31:20;;;;;;;;;;;;;;;21.01;31.07;102464.19;5038442;28;19964;-73
2024/01/29 02:33:45;;;;;;;;;;;;;;;20.97;30.98;102455.53;5038155;28;19921;-72
2024/01/29 02:36:11;;;;;;;;;;;;;;;20.95;31.04;102461.09;5039552;28;20036;-73
2024/01/29 02:38:37;;;;;;;;;;;;;;;20.93;30.99;102456.81;5033581;28;20394;-72
2024/01/29 02:41:02;;;;;;;;;;;;;;;20.91;31.15;102458.81;5032712;28;19976;-72
2024/01/29 02:43:27;;;;;;;;;;;;;;;20.89;30.87;102455.38;5035140;28;19917;-72
2024/01/29 02:45:52;;;;;;;;;;;;;;;20.88;31.12;102453.69;5047574;28;19972;-72
2024/01/29 02:48:18;;;;;;;;;;;;;;;20.85;31.02;102452.13;5044345;28;19913;-73
2024/01/29 02:50:43;;;;;;;;;;;;;;;20.82;31.09;102456.97;5041663;28;20571;-72
2024/01/29 02:53:08;;;;;;;;;;;;;;;20.80;31.17;102451.69;5032829;28;19914;-72
2024/01/29 02:55:33;;;;;;;;;;;;;;;20.78;31.21;102448.31;5037434;28;19920;-72
2024/01/29 02:57:58;;;;;;;;;;;;;;;20.78;31.22;102450.16;5034275;28;20404;-72
2024/01/29 03:00:24;;;;;;;;;;;;;;;20.77;31.23;102443.00;5037655;28;19924;-72
2024/01/29 03:02:49;;;;;;;;;;;;;;;20.74;30.96;102449.59;5035358;28;19948;-72
2024/01/29 03:05:14;;;;;;;;;;;;;;;20.72;30.96;102454.25;5041276;28;19948;-72
2024/01/29 03:07:39;;;;;;;;;;;;;;;20.71;31.31;102458.81;5041983;28;19923;-72
2024/01/29 03:10:05;;;;;;;;;;;;;;;20.69;31.06;102451.88;5035250;28;19925;-72
2024/01/29 03:12:30;;;;;;;;;;;;;;;20.66;31.40;102455.69;5035579;28;19924;-72
2024/01/29 03:14:55;;;;;;;;;;;;;;;20.65;31.40;102450.44;5030950;28;19940;-72
2024/01/29 03:17:21;;;;;;;;;;;;;;;20.63;31.25;102453.28;5037804;28;19917;-72
2024/01/29 03:19:46;;;;;;;;;;;;;;;20.61;31.15;102463.38;5045304;28;19921;-72
2024/01/29 03:22:11;;;;;;;;;;;;;;;20.58;31.05;102455.56;5037477;28;19940;-72
2024/01/29 03:24:36;;;;;;;;;;;;;;;20.58;31.41;102468.22;5036365;28;19917;-72
2024/01/29 03:27:01;;;;;;;;;;;;;;;20.56;31.38;102454.84;5035945;28;19917;-72
2024/01/29 03:29:27;;;;;;;;;;;;;;;20.55;31.22;102453.13;5038832;28;19929;-72
2024/01/29 03:31:52;;;;;;;;;;;;;;;20.54;31.45;102450.56;5038062;28;19921;-72
2024/01/29 03:34:17;;;;;;;;;;;;;;;20.52;31.23;102453.44;5037202;28;19914;-71
2024/01/29 03:36:43;;;;;;;;;;;;;;;20.51;31.40;102462.50;5035013;28;20016;-71
2024/01/29 03:39:08;;;;;;;;;;;;;;;20.50;31.43;102462.66;5015281;28;19956;-71
2024/01/29 03:41:34;;;;;;;;;;;;;;;20.47;31.21;102461.94;5047578;28;19963;-71
2024/01/29 03:43:59;;;;;;;;;;;;;;;20.47;31.43;102471.84;5048070;28;20342;-72
2024/01/29 03:46:24;;;;;;;;;;;;;;;20.44;31.28;102464.06;5043258;28;19913;-72
2024/01/29 03:48:50;;;;;;;;;;;;;;;20.44;31.31;102466.75;5030970;28;19917;-72
2024/01/29 03:51:15;;;;;;;;;;;;;;;20.41;31.50;102459.78;5030287;28;20380;-72
2024/01/29 03:53:40;;;;;;;;;;;;;;;20.41;31.21;102477.84;5034842;28;19913;-72
2024/01/29 03:56:05;;;;;;;;;;;;;;;20.39;31.40;102472.59;5041484;28;20396;-72
2024/01/29 03:58:31;;;;;;;;;;;;;;;20.37;31.25;102463.75;5040632;28;20452;-73
2024/01/29 04:00:56;;;;;;;;;;;;;;;20.36;31.29;102469.31;5039113;28;19917;-73
2024/01/29 04:03:21;;;;;;;;;;;;;;;20.34;31.58;102465.88;5042445;28;19913;-74
2024/01/29 04:05:46;;;;;;;;;;;;;;;20.32;31.54;102457.94;5037470;28;20400;-73
2024/01/29 04:08:12;;;;;;;;;;;;;;;20.31;31.66;102469.72;5032738;28;19924;-73
2024/01/29 04:10:37;;;;;;;;;;;;;;;20.28;31.44;102467.31;5034415;28;20017;-72
2024/01/29 04:13:02;;;;;;;;;;;;;;;20.28;31.35;102461.06;5034892;28;19939;-74
2024/01/29 04:15:28;;;;;;;;;;;;;;;20.26;31.48;102457.63;5040551;28;19912;-72
2024/01/29 04:17:53;;;;;;;;;;;;;;;20.23;31.50;102458.78;5041442;28;19917;-74
2024/01/29 04:20:19;;;;;;;;;;;;;;;20.23;31.52;102456.06;5040322;28;20074;-75
2024/01/29 04:22:44;;;;;;;;;;;;;;;20.20;31.57;102457.19;5035548;28;19913;-74
2024/01/29 04:25:09;;;;;;;;;;;;;;;20.20;31.62;102456.34;5037689;28;19944;-73
2024/01/29 04:27:34;;;;;;;;;;;;;;;20.19;32.10;102449.25;5045394;28;19917;-74
2024/01/29 04:30:01;;;;;;;;;;;;;;;20.17;32.01;102446.66;5041180;28;19925;-73
2024/01/29 04:32:26;;;;;;;;;;;;;;;20.17;31.84;102449.34;5045984;28;19912;-74
2024/01/29 04:34:52;;;;;;;;;;;;;;;20.17;31.92;102445.81;5039032;28;19920;-74
2024/01/29 04:37:17;;;;;;;;;;;;;;;20.16;31.99;102446.81;5038701;28;19971;-75
2024/01/29 04:39:42;;;;;;;;;;;;;;;20.14;32.33;102449.66;5039735;28;19922;-74
2024/01/29 04:42:07;;;;;;;;;;;;;;;20.15;32.16;102453.22;5040886;28;20047;-74
2024/01/29 04:44:33;;;;;;;;;;;;;;;20.13;32.27;102445.22;5042955;28;20366;-72
2024/01/29 04:46:58;;;;;;;;;;;;;;;20.13;32.25;102452.47;5036260;28;20078;-73
2024/01/29 04:49:23;;;;;;;;;;;;;;;20.11;32.46;102449.94;5042503;28;20290;-72
2024/01/29 04:51:48;;;;;;;;;;;;;;;20.12;32.56;102443.53;5043781;28;19913;-72
2024/01/29 04:54:13;;;;;;;;;;;;;;;20.12;32.66;102439.97;5042655;28;19976;-72
2024/01/29 04:56:39;;;;;;;;;;;;;;;20.12;32.53;102448.06;5048950;28;19924;-72
2024/01/29 04:59:04;;;;;;;;;;;;;;;20.11;32.42;102446.38;5045734;28;19917;-74
2024/01/29 05:01:29;;;;;;;;;;;;;;;20.11;32.82;102455.34;5038828;28;19921;-74
2024/01/29 05:03:54;;;;;;;;;;;;;;;20.10;32.67;102452.78;5043440;28;19980;-73
2024/01/29 05:06:19;;;;;;;;;;;;;;;20.10;32.63;102445.53;5038132;28;20796;-75
2024/01/29 05:08:45;;;;;;;;;;;;;;;20.11;32.59;102446.38;5037978;28;20008;-75
2024/01/29 05:11:10;;;;;;;;;;;;;;;20.10;32.50;102434.72;5037488;28;20362;-75
2024/01/29 05:13:35;;;;;;;;;;;;;;;20.11;32.61;102432.88;5044753;28;19923;-76
2024/01/29 05:16:00;;;;;;;;;;;;;;;20.12;32.67;102431.88;5046275;28;19920;-75
2024/01/29 05:18:25;;;;;;;;;;;;;;;20.13;32.74;102430.88;5039776;28;19920;-77
2024/01/29 05:20:51;;;;;;;;;;;;;;;20.14;32.61;102435.31;5039195;28;19913;-77
2024/01/29 05:23:16;;;;;;;;;;;;;;;20.15;32.40;102418.09;5032056;28;19928;-76
2024/01/29 05:25:41;;;;;;;;;;;;;;;20.17;32.41;102424.22;5047522;28;19923;-78
2024/01/29 05:28:06;;;;;;;;;;;;;;;20.18;32.28;102417.84;5037107;28;19917;-77
2024/01/29 05:30:31;;;;;;;;;;;;;;;20.19;32.48;102419.53;5037841;28;19914;-77
2024/01/29 05:32:57;;;;;;;;;;;;;;;20.20;32.32;102418.53;5038407;28;19913;-75
2024/01/29 05:35:22;;;;;;;;;;;;;;;20.21;32.32;102421.09;5033787;28;19920;-74
2024/01/29 05:37:47;;;;;;;;;;;;;;;20.22;32.30;102421.97;5043442;28;20440;-74
2024/01/29 05:40:12;;;;;;;;;;;;;;;20.23;32.20;102423.66;5038294;28;19922;-73
2024/01/29 05:42:38;;;;;;;;;;;;;;;20.23;32.19;102420.97;5038559;28;19913;-74
2024/01/29 05:45:03;;;;;;;;;;;;;;;20.25;32.07;102426.22;5038097;28;19913;-74
2024/01/29 05:47:28;;;;;;;;;;;;;;;20.25;32.11;102435.16;5032401;28;19917;-74
2024/01/29 05:49:53;;;;;;;;;;;;;;;20.26;32.10;102447.66;5046371;28;19920;-74
2024/01/29 05:52:19;;;;;;;;;;;;;;;20.28;32.28;102451.09;5044276;28;19913;-74
2024/01/29 05:54:44;;;;;;;;;;;;;;;20.29;32.22;102455.50;5038040;28;19952;-78
2024/01/29 05:57:09;;;;;;;;;;;;;;;20.30;31.83;102468.00;5036083;28;19927;-72
2024/01/29 05:59:34;;;;;;;;;;;;;;;20.31;32.00;102464.34;5030527;28;20448;-74
2024/01/29 06:01:59;;;;;;;;;;;;;;;20.32;32.14;102471.44;5038573;28;19944;-74
2024/01/29 06:04:25;;;;;;;;;;;;;;;20.35;31.76;102470.31;5045178;28;19921;-75
2024/01/29 06:06:50;;;;;;;;;;;;;;;20.35;31.98;102468.47;5046230;28;20377;-75
2024/01/29 06:09:15;;;;;;;;;;;;;;;20.38;31.69;102472.72;5038487;28;19980;-73
2024/01/29 06:11:40;;;;;;;;;;;;;;;20.39;31.76;102482.50;5040701;28;19921;-73
2024/01/29 06:14:06;;;;;;;;;;;;;;;20.40;31.82;102482.38;5037155;28;19922;-73
2024/01/29 06:16:32;;;;;;;;;;;;;;;20.42;31.82;102482.25;5036334;28;19921;-74
2024/01/29 06:18:57;;;;;;;;;;;;;;;20.42;31.75;102484.94;5036048;28;19922;-74
2024/01/29 06:21:22;;;;;;;;;;;;;;;20.44;31.43;102483.81;5033235;28;20006;-74
2024/01/29 06:23:48;;;;;;;;;;;;;;;20.45;31.69;102473.88;5041293;28;19920;-73
2024/01/29 06:26:13;;;;;;;;;;;;;;;20.47;31.42;102463.75;5042760;28;20003;-73
2024/01/29 06:28:40;;;;;;;;;;;;;;;20.49;31.51;102475.31;5037354;28;19988;-75
2024/01/29 06:31:06;;;;;;;;;;;;;;;20.51;31.63;102478.72;5036888;28;19917;-74
2024/01/29 06:33:31;;;;;;;;;;;;;;;20.52;31.28;102466.94;5032172;28;19944;-77
2024/01/29 06:35:59;;;;;;;;;;;;;;;20.54;31.34;102469.50;5039417;28;19928;-73
2024/01/29 06:38:24;;;;;;;;;;;;;;;20.56;31.28;102464.78;5048671;28;19923;-74
2024/01/29 06:40:49;;;;;;;;;;;;;;;20.58;31.50;102463.66;5046405;28;20011;-73
2024/01/29 06:43:15;;;;;;;;;;;;;;;20.59;31.26;102467.22;5036568;28;19913;-75
2024/01/29 06:45:40;;;;;;;;;;;;;;;20.62;31.17;102475.03;5034741;28;20354;-74
2024/01/29 06:48:07;;;;;;;;;;;;;;;20.63;31.36;102474.03;5037904;28;19914;-73
2024/01/29 06:50:33;;;;;;;;;;;;;;;20.66;31.12;102481.88;5037418;28;19914;-73
2024/01/29 06:52:58;;;;;;;;;;;;;;;20.65;31.43;102482.88;5036513;28;19917;-74
2024/01/29 06:55:24;;;;;;;;;;;;;;;20.68;31.46;102488.81;5036822;28;19924;-74
2024/01/29 06:57:59;;;;;;;;;;;;;;;20.70;31.32;102497.66;5111505;27;19924;-53
2024/01/29 07:00:24;;;;;;;;;;;;;;;20.72;31.17;102501.06;5112029;28;19988;-52
2024/01/29 07:02:49;;;;;;;;;;;;;;;20.78;31.28;102504.22;5105133;28;19916;-54
2024/01/29 07:05:15;;;;;;;;;;;;;;;20.78;31.54;102501.50;5106101;28;19916;-53
2024/01/29 07:07:40;;;;;;;;;;;;;;;20.81;31.10;102507.47;5112926;28;19922;-54
2024/01/29 07:10:06;;;;;;;;;;;;;;;20.84;31.09;102498.22;5109631;28;19915;-53
2024/01/29 07:12:31;;;;;;;;;;;;;;;20.86;31.26;102521.44;5108211;28;19912;-54
2024/01/29 07:14:56;;;;;;;;;;;;;;;20.88;31.25;102522.13;5108020;28;19978;-51
2024/01/29 07:17:21;;;;;;;;;;;;;;;20.92;31.08;102525.41;5107246;28;19932;-51
2024/01/29 07:19:48;;;;;;;;;;;;;;;20.94;31.16;102526.09;5108247;28;20143;-51
2024/01/29 07:22:18;;;;;;;;;;;;;;;20.95;31.15;102512.47;5091106;28;19916;-53
2024/01/29 07:24:43;;;;;;;;;;;;;;;20.98;30.93;102516.69;5108062;28;19919;-53
2024/01/29 07:27:09;;;;;;;;;;;;;;;21.03;31.04;102519.00;5106604;28;20007;-53
2024/01/29 07:29:34;;;;;;;;;;;;;;;21.05;31.07;102525.13;5107667;28;20260;-48
2024/01/29 07:31:59;;;;;;;;;;;;;;;21.07;30.99;102531.22;5109370;28;19919;-53
2024/01/29 07:34:24;;;;;;;;;;;;;;;21.09;30.98;102531.94;5106093;28;20430;-52
2024/01/29 07:36:50;;;;;;;;;;;;;;;21.09;30.83;102534.66;5108801;28;20391;-54
2024/01/29 07:39:15;;;;;;;;;;;;;;;21.11;30.87;102530.81;5108814;28;20295;-50
2024/01/29 07:41:40;;;;;;;;;;;;;;;21.14;30.91;102530.50;5106538;28;19916;-52
2024/01/29 07:44:05;;;;;;;;;;;;;;;21.16;30.53;102533.94;5108929;28;19916;-53
2024/01/29 07:46:31;;;;;;;;;;;;;;;21.18;30.68;102534.63;5107044;28;19986;-52
2024/01/29 07:48:59;;;;;;;;;;;;;;;21.21;30.52;102538.91;5107597;28;19955;-52
2024/01/29 07:51:24;;;;;;;;;;;;;;;21.25;30.62;102531.38;5103016;28;20359;-51
2024/01/29 07:53:49;;;;;;;;;;;;;;;21.26;30.71;102531.19;5108788;28;19959;-51
2024/01/29 07:56:15;;;;;;;;;;;;;;;21.28;30.43;102534.63;5108796;28;20050;-52
2024/01/29 07:58:40;;;;;;;;;;;;;;;21.30;30.19;102529.06;5108972;28;19923;-52
2024/01/29 08:01:05;;;;;;;;;;;;;;;21.33;30.56;102526.97;5108595;28;20053;-52
2024/01/29 08:03:30;;;;;;;;;;;;;;;21.34;30.35;102523.25;5105777;28;19922;-52
2024/01/29 08:05:56;;;;;;;;;;;;;;;21.38;30.29;102531.94;5107553;28;19948;-53
2024/01/29 08:08:21;;;;;;;;;;;;;;;21.37;30.26;102522.97;5099741;28;19940;-50
2024/01/29 08:10:47;;;;;;;;;;;;;;;21.37;30.34;102517.56;5095323;28;20405;-51
2024/01/29 08:13:13;;;;;;;;;;;;;;;21.41;30.13;102516.28;5091281;28;19916;-52
2024/01/29 08:15:38;;;;;;;;;;;;;;;21.42;30.22;102526.09;5090284;28;19912;-49
2024/01/29 08:18:03;;;;;;;;;;;;;;;21.47;30.12;102528.34;5093118;28;20019;-50
2024/01/29 08:20:29;;;;;;;;;;;;;;;21.49;29.94;102529.03;5097555;28;20428;-48
2024/01/29 08:22:54;;;;;;;;;;;;;;;21.52;30.23;102533.31;5093557;28;19935;-49
2024/01/29 08:25:20;;;;;;;;;;;;;;;21.55;29.99;102542.00;5095658;28;19916;-50
2024/01/29 08:27:45;;;;;;;;;;;;;;;21.56;30.29;102538.28;5091189;28;19928;-53
2024/01/29 08:30:10;;;;;;;;;;;;;;;21.58;30.23;102539.00;5092531;28;20010;-50
2024/01/29 08:32:36;;;;;;;;;;;;;;;21.61;29.94;102551.38;5093003;28;20332;-51
2024/01/29 08:35:01;;;;;;;;;;;;;;;21.63;30.02;102549.41;5090625;28;19923;-50
2024/01/29 08:37:27;;;;;;;;;;;;;;;21.65;30.00;102555.50;5093475;28;19920;-51
2024/01/29 08:39:52;;;;;;;;;;;;;;;21.66;30.11;102555.38;5094849;28;19923;-45
2024/01/29 08:42:18;;;;;;;;;;;;;;;21.70;29.91;102561.31;5094511;28;19955;-51
2024/01/29 08:44:43;;;;;;;;;;;;;;;21.74;30.08;102561.88;5091142;28;19916;-50
2024/01/29 08:47:09;;;;;;;;;;;;;;;21.76;29.98;102562.59;5091127;28;19912;-48
2024/01/29 08:49:35;;;;;;;;;;;;;;;21.77;29.96;102561.59;5092499;28;19970;-51
2024/01/29 08:52:00;;;;;;;;;;;;;;;21.80;29.97;102561.31;5091492;28;19912;-50
2024/01/29 08:54:26;;;;;;;;;;;;;;;21.80;29.76;102562.16;5095262;28;19912;-49
2024/01/29 08:56:51;;;;;;;;;;;;;;;21.83;29.67;102561.00;5095227;28;19942;-50
2024/01/29 08:59:19;;;;;;;;;;;;;;;21.86;29.69;102555.28;5092373;28;19916;-53
2024/01/29 09:01:44;;;;;;;;;;;;;;;21.86;29.74;102558.00;5091645;28;20345;-50
2024/01/29 09:04:09;;;;;;;;;;;;;;;21.87;29.78;102557.00;5091137;28;19987;-50
2024/01/29 09:06:34;;;;;;;;;;;;;;;21.86;29.87;102552.59;5093046;28;19988;-48
2024/01/29 09:09:00;;;;;;;;;;;;;;;21.86;30.24;102558.00;5091185;28;19983;-52
2024/01/29 09:11:25;;;;;;;;;;;;;;;21.94;29.95;102555.41;5089228;28;19923;-50
2024/01/29 09:13:50;;;;;;;;;;;;;;;22.00;29.93;102548.53;5095926;28;19917;-50
2024/01/29 09:16:16;;;;;;;;;;;;;;;22.00;30.07;102543.97;5090954;28;19927;-50
2024/01/29 09:18:41;;;;;;;;;;;;;;;22.03;29.75;102543.66;5093512;28;19912;-49
2024/01/29 09:21:07;;;;;;;;;;;;;;;22.08;29.67;102554.91;5093969;28;19912;-50
2024/01/29 09:23:33;;;;;;;;;;;;;;;22.15;29.69;102550.63;5093756;28;19946;-52
2024/01/29 09:25:58;;;;;;;;;;;;;;;22.20;29.56;102547.47;5089483;28;19920;-52
2024/01/29 09:28:23;;;;;;;;;;;;;;;22.23;29.40;102549.03;5091930;28;19913;-48
2024/01/29 09:30:49;;;;;;;;;;;;;;;22.24;29.54;102546.16;5094533;28;20286;-51
2024/01/29 09:33:16;;;;;;;;;;;;;;;22.28;29.37;102538.59;5093220;28;19923;-51
2024/01/29 09:35:41;;;;;;;;;;;;;;;22.35;29.36;102548.69;5093321;28;19916;-50
2024/01/29 09:38:07;;;;;;;;;;;;;;;22.41;29.22;102541.78;5091735;28;19939;-49
2024/01/29 09:40:32;;;;;;;;;;;;;;;22.48;29.25;102537.47;5094202;28;19916;-52
2024/01/29 09:42:57;;;;;;;;;;;;;;;22.51;29.05;102534.44;5091791;28;19916;-52
2024/01/29 09:45:25;;;;;;;;;;;;;;;22.54;29.25;102536.00;5070522;28;19912;-51
2024/01/29 09:47:51;;;;;;;;;;;;;;;22.57;29.01;102541.13;5091043;28;19938;-51
2024/01/29 09:50:16;;;;;;;;;;;;;;;22.61;29.17;102542.50;5072966;28;19913;-52
2024/01/29 09:52:42;;;;;;;;;;;;;;;22.61;29.02;102556.06;5092987;28;19919;-52
2024/01/29 09:55:07;;;;;;;;;;;;;;;22.64;28.89;102553.91;5074973;28;19946;-54
2024/01/29 09:57:32;;;;;;;;;;;;;;;22.71;28.97;102554.13;5086459;28;19925;-50
2024/01/29 09:59:58;;;;;;;;;;;;;;;22.76;29.06;102553.66;5087975;28;19920;-52
2024/01/29 10:02:23;;;;;;;;;;;;;;;22.76;28.90;102554.50;5092452;28;19927;-53
2024/01/29 10:04:48;;;;;;;;;;;;;;;22.84;28.83;102559.16;5090989;28;19927;-49
2024/01/29 10:07:14;;;;;;;;;;;;;;;22.85;28.57;102559.03;5072954;28;19924;-53
2024/01/29 10:09:39;;;;;;;;;;;;;;;22.86;28.75;102558.03;5075879;28;19915;-51
2024/01/29 10:12:04;;;;;;;;;;;;;;;22.93;28.76;102569.97;5094314;28;19919;-51
2024/01/29 10:14:30;;;;;;;;;;;;;;;22.97;28.70;102570.50;5091294;28;19924;-54
2024/01/29 10:16:55;;;;;;;;;;;;;;;23.01;28.48;102569.19;5093398;28;19967;-51
2024/01/29 10:19:20;;;;;;;;;;;;;;;23.03;28.69;102580.75;5091854;28;19920;-54
2024/01/29 10:21:46;;;;;;;;;;;;;;;23.05;28.36;102572.44;5089223;28;20354;-49
2024/01/29 10:24:13;;;;;;;;;;;;;;;23.06;28.54;102580.44;5087450;28;20003;-48
2024/01/29 10:26:38;;;;;;;;;;;;;;;23.05;28.61;102581.44;5089263;28;19947;-53
2024/01/29 10:29:03;;;;;;;;;;;;;;;23.04;28.76;102589.75;5090682;28;19962;-51
2024/01/29 10:31:29;;;;;;;;;;;;;;;23.02;28.51;102589.03;5091019;28;19917;-51
2024/01/29 10:33:54;;;;;;;;;;;;;;;23.00;28.68;102581.06;5090864;28;20415;-46
2024/01/29 10:36:20;;;;;;;;;;;;;;;22.97;28.71;102586.78;5071852;28;19916;-52
2024/01/29 10:38:45;;;;;;;;;;;;;;;22.92;28.83;102580.97;5091636;28;19920;-53
2024/01/29 10:41:11;;;;;;;;;;;;;;;22.88;28.64;102587.69;5091993;28;19913;-55
2024/01/29 10:43:38;;;;;;;;;;;;;;;22.83;28.88;102585.44;5071404;28;19916;-53
2024/01/29 10:46:03;;;;;;;;;;;;;;;22.80;28.88;102593.88;5088423;28;19971;-54
2024/01/29 10:48:28;;;;;;;;;;;;;;;22.76;29.18;102599.75;5092954;28;19924;-51
2024/01/29 10:50:53;;;;;;;;;;;;;;;22.71;29.25;102601.06;5073261;28;19919;-55
2024/01/29 10:53:20;;;;;;;;;;;;;;;22.68;29.36;102598.69;5074270;28;20334;-52
2024/01/29 10:55:46;;;;;;;;;;;;;;;22.65;29.43;102595.44;5097917;28;19912;-55
2024/01/29 10:58:12;;;;;;;;;;;;;;;22.64;29.17;102599.13;5098435;28;19920;-53
2024/01/29 11:00:37;;;;;;;;;;;;;;;22.59;29.52;102599.59;5054612;28;20404;-51
2024/01/29 11:03:04;;;;;;;;;;;;;;;22.59;29.33;102598.72;5075033;28;19917;-53
2024/01/29 11:05:29;;;;;;;;;;;;;;;22.58;29.25;102599.75;5072698;28;19942;-51
2024/01/29 11:07:54;;;;;;;;;;;;;;;22.55;29.39;102600.03;5092088;28;19912;-52
2024/01/29 11:10:23;;;;;;;;;;;;;;;22.54;29.44;102598.34;5068967;28;19913;-53
2024/01/29 11:12:48;;;;;;;;;;;;;;;22.55;29.74;102595.47;5091202;28;19916;-51
2024/01/29 11:15:14;;;;;;;;;;;;;;;22.56;29.58;102597.19;5073624;28;20708;-54
2024/01/29 11:17:40;;;;;;;;;;;;;;;22.57;29.62;102601.59;5092056;28;19957;-52
2024/01/29 11:20:15;;;;;;;;;;;;;;;22.56;29.70;102594.50;5091149;28;19957;-44
2024/01/29 11:22:40;;;;;;;;;;;;;;;22.58;29.68;102599.75;5088768;28;19923;-48
2024/01/29 11:25:12;;;;;;;;;;;;;;;22.57;29.65;102609.75;5091732;28;19912;-52
2024/01/29 11:27:38;;;;;;;;;;;;;;;22.57;29.92;102598.03;5091822;28;19922;-52
2024/01/29 11:30:13;;;;;;;;;;;;;;;22.57;29.79;102606.19;5071356;28;19955;-53
2024/01/29 11:32:40;;;;;;;;;;;;;;;22.56;30.01;102593.63;5091323;28;19944;-50
2024/01/29 11:35:13;;;;;;;;;;;;;;;22.57;29.79;102596.19;5088716;28;20496;-53
2024/01/29 11:37:38;;;;;;;;;;;;;;;22.61;29.94;102599.44;5091167;28;19924;-54
2024/01/29 11:40:04;;;;;;;;;;;;;;;22.61;30.03;102594.03;5076387;28;19916;-50
2024/01/29 11:42:29;;;;;;;;;;;;;;;22.60;30.05;102595.00;5075039;28;20014;-50
2024/01/29 11:44:54;;;;;;;;;;;;;;;22.61;30.18;102594.03;5094569;28;19917;-53
2024/01/29 11:47:21;;;;;;;;;;;;;;;22.61;30.02;102592.16;5077558;28;19912;-47
2024/01/29 11:49:47;;;;;;;;;;;;;;;22.62;29.87;102587.59;5096797;28;19947;-50
2024/01/29 11:52:12;;;;;;;;;;;;;;;22.62;30.09;102591.16;5092474;28;19923;-52
2024/01/29 11:54:38;;;;;;;;;;;;;;;22.63;30.11;102592.84;5092520;28;19920;-50
2024/01/29 11:57:03;;;;;;;;;;;;;;;22.63;30.29;102586.59;5093108;28;19984;-54
2024/01/29 11:59:28;;;;;;;;;;;;;;;22.63;30.01;102586.59;5076772;28;19923;-51
2024/01/29 12:01:53;;;;;;;;;;;;;;;22.64;30.23;102577.44;5096173;28;19916;-51
2024/01/29 12:04:19;;;;;;;;;;;;;;;22.61;30.38;102570.47;5088736;28;19916;-52
2024/01/29 12:06:44;;;;;;;;;;;;;;;22.62;30.23;102574.03;5089773;28;19912;-52
2024/01/29 12:09:09;;;;;;;;;;;;;;;22.61;30.41;102567.75;5075378;28;19912;-53
2024/01/29 12:11:34;;;;;;;;;;;;;;;22.64;30.50;102580.16;5075769;28;19917;-52
2024/01/29 12:13:59;;;;;;;;;;;;;;;22.65;30.28;102576.44;5090593;28;19923;-53
2024/01/29 12:16:25;;;;;;;;;;;;;;;22.67;30.42;102572.56;5096283;28;20421;-50
2024/01/29 12:18:50;;;;;;;;;;;;;;;22.69;30.29;102577.84;5093792;28;19923;-51
2024/01/29 12:21:15;;;;;;;;;;;;;;;22.69;30.45;102581.41;5074439;28;19923;-51
2024/01/29 12:23:40;;;;;;;;;;;;;;;22.70;30.44;102577.69;5092640;28;19938;-51
2024/01/29 12:26:06;;;;;;;;;;;;;;;22.70;30.47;102582.25;5079885;28;20456;-52